createdAt,value
2016-10-29T00:00:26.869Z,1030.53
2016-10-29T00:01:27.552Z,1030.56
2016-10-29T00:02:28.238Z,1030.57
2016-10-29T00:03:28.897Z,1030.52
2016-10-29T00:04:30.087Z,1030.51
2016-10-29T00:05:31.640Z,1030.55
2016-10-29T00:06:32.864Z,1030.51
2016-10-29T00:07:33.527Z,1030.54
2016-10-29T00:08:34.234Z,1030.54
2016-10-29T00:09:34.903Z,1030.52
2016-10-29T00:10:35.569Z,1030.55
2016-10-29T00:11:36.221Z,1030.53
2016-10-29T00:12:36.890Z,1030.48
2016-10-29T00:13:37.561Z,1030.54
2016-10-29T00:14:38.236Z,1030.54
2016-10-29T00:15:38.906Z,1030.52
2016-10-29T00:16:39.582Z,1030.51
2016-10-29T00:17:40.247Z,1030.52
2016-10-29T00:18:40.917Z,1030.53
2016-10-29T00:19:41.615Z,1030.51
2016-10-29T00:20:42.282Z,1030.55
2016-10-29T00:21:42.952Z,1030.52
2016-10-29T00:22:43.615Z,1030.51
2016-10-29T00:23:44.279Z,1030.48
2016-10-29T00:24:44.953Z,1030.47
2016-10-29T00:25:45.613Z,1030.47
2016-10-29T00:26:46.276Z,1030.45
2016-10-29T00:27:46.995Z,1030.45
2016-10-29T00:28:47.673Z,1030.44
2016-10-29T00:29:48.332Z,1030.43
2016-10-29T00:30:48.984Z,1030.44
2016-10-29T00:31:49.667Z,1030.43
2016-10-29T00:32:50.339Z,1030.41
2016-10-29T00:33:51.003Z,1030.42
2016-10-29T00:34:51.687Z,1030.45
2016-10-29T00:35:52.397Z,1030.49
2016-10-29T00:36:53.059Z,1030.5
2016-10-29T00:37:53.808Z,1030.53
2016-10-29T00:38:54.473Z,1030.55
2016-10-29T00:39:55.143Z,1030.55
2016-10-29T00:40:55.801Z,1030.51
2016-10-29T00:41:56.467Z,1030.54
2016-10-29T00:42:57.128Z,1030.56
2016-10-29T00:43:57.790Z,1030.55
2016-10-29T00:44:58.470Z,1030.54
2016-10-29T00:45:59.133Z,1030.57
2016-10-29T00:46:59.805Z,1030.55
2016-10-29T00:48:00.471Z,1030.57
2016-10-29T00:49:01.128Z,1030.54
2016-10-29T00:50:01.794Z,1030.54
2016-10-29T00:51:02.470Z,1030.52
2016-10-29T00:52:03.132Z,1030.52
2016-10-29T00:53:03.796Z,1030.52
2016-10-29T00:54:04.458Z,1030.54
2016-10-29T00:55:05.132Z,1030.56
2016-10-29T00:56:05.809Z,1030.58
2016-10-29T00:57:06.487Z,1030.57
2016-10-29T00:58:07.147Z,1030.53
2016-10-29T00:59:07.819Z,1030.5
2016-10-29T01:00:08.479Z,1030.52
2016-10-29T01:01:09.134Z,1030.5
2016-10-29T01:02:09.798Z,1030.45
2016-10-29T01:03:10.451Z,1030.4
2016-10-29T01:04:11.108Z,1030.42
2016-10-29T01:05:11.768Z,1030.46
2016-10-29T01:06:12.429Z,1030.41
2016-10-29T01:07:13.101Z,1030.37
2016-10-29T01:08:13.770Z,1030.38
2016-10-29T01:09:14.425Z,1030.37
2016-10-29T01:10:15.079Z,1030.37
2016-10-29T01:11:15.743Z,1030.36
2016-10-29T01:12:16.429Z,1030.36
2016-10-29T01:13:17.103Z,1030.32
2016-10-29T01:14:17.765Z,1030.3
2016-10-29T01:15:18.432Z,1030.26
2016-10-29T01:16:19.110Z,1030.27
2016-10-29T01:17:19.786Z,1030.21
2016-10-29T01:18:20.465Z,1030.25
2016-10-29T01:19:21.125Z,1030.31
2016-10-29T01:20:21.811Z,1030.29
2016-10-29T01:21:22.464Z,1030.32
2016-10-29T01:22:23.134Z,1030.28
2016-10-29T01:23:23.800Z,1030.29
2016-10-29T01:24:24.474Z,1030.27
2016-10-29T01:25:25.131Z,1030.25
2016-10-29T01:26:25.799Z,1030.19
2016-10-29T01:27:26.476Z,1030.2
2016-10-29T01:28:27.140Z,1030.16
2016-10-29T01:29:27.793Z,1030.17
2016-10-29T01:30:28.464Z,1030.16
2016-10-29T01:31:29.129Z,1030.11
2016-10-29T01:32:29.801Z,1030.18
2016-10-29T01:33:30.468Z,1030.19
2016-10-29T01:34:31.146Z,1030.21
2016-10-29T01:35:31.825Z,1030.18
2016-10-29T01:36:39.232Z,1030.16
2016-10-29T01:37:39.896Z,1030.13
2016-10-29T01:38:40.561Z,1030.18
2016-10-29T01:39:41.222Z,1030.13
2016-10-29T01:40:41.894Z,1030.13
2016-10-29T01:41:42.564Z,1030.11
2016-10-29T01:42:43.236Z,1030.13
2016-10-29T01:43:43.914Z,1030.08
2016-10-29T01:44:44.581Z,1030.06
2016-10-29T01:45:45.251Z,1030.07
2016-10-29T01:46:45.921Z,1030.04
2016-10-29T01:47:46.593Z,1030.01
2016-10-29T01:48:47.268Z,1029.97
2016-10-29T01:49:48.861Z,1029.97
2016-10-29T01:50:49.524Z,1030.01
2016-10-29T01:51:50.195Z,1030.02
2016-10-29T01:52:50.869Z,1030.02
2016-10-29T01:53:51.550Z,1030.04
2016-10-29T01:54:52.227Z,1030
2016-10-29T01:55:52.898Z,1029.99
2016-10-29T01:56:53.575Z,1029.95
2016-10-29T01:57:54.273Z,1029.92
2016-10-29T01:58:54.936Z,1029.97
2016-10-29T01:59:55.599Z,1029.92
2016-10-29T02:00:56.298Z,1029.97
2016-10-29T02:01:56.978Z,1029.98
2016-10-29T02:02:57.650Z,1029.97
2016-10-29T02:03:58.322Z,1029.97
2016-10-29T02:04:58.991Z,1030
2016-10-29T02:05:59.662Z,1030.02
2016-10-29T02:07:00.338Z,1030.03
2016-10-29T02:08:01.011Z,1030.03
2016-10-29T02:09:01.692Z,1030.02
2016-10-29T02:10:02.358Z,1029.98
2016-10-29T02:11:03.026Z,1030.03
2016-10-29T02:12:03.699Z,1029.99
2016-10-29T02:13:04.366Z,1029.97
2016-10-29T02:14:05.041Z,1029.95
2016-10-29T02:15:05.723Z,1029.93
2016-10-29T02:16:06.388Z,1029.93
2016-10-29T02:17:07.071Z,1029.87
2016-10-29T02:18:07.735Z,1029.85
2016-10-29T02:19:08.409Z,1029.81
2016-10-29T02:20:09.081Z,1029.83
2016-10-29T02:21:09.739Z,1029.85
2016-10-29T02:22:10.427Z,1029.83
2016-10-29T02:23:11.084Z,1029.79
2016-10-29T02:24:11.768Z,1029.8
2016-10-29T02:25:12.441Z,1029.78
2016-10-29T02:26:13.106Z,1029.81
2016-10-29T02:27:13.786Z,1029.81
2016-10-29T02:28:14.454Z,1029.82
2016-10-29T02:29:15.135Z,1029.81
2016-10-29T02:30:15.801Z,1029.79
2016-10-29T02:31:16.465Z,1029.78
2016-10-29T02:32:17.126Z,1029.77
2016-10-29T02:33:17.791Z,1029.73
2016-10-29T02:34:18.457Z,1029.71
2016-10-29T02:35:19.118Z,1029.74
2016-10-29T02:36:19.789Z,1029.78
2016-10-29T02:37:20.462Z,1029.79
2016-10-29T02:38:21.125Z,1029.83
2016-10-29T02:39:21.801Z,1029.79
2016-10-29T02:40:22.475Z,1029.85
2016-10-29T02:41:23.141Z,1029.84
2016-10-29T02:42:23.798Z,1029.92
2016-10-29T02:43:24.459Z,1029.92
2016-10-29T02:44:25.217Z,1029.87
2016-10-29T02:45:25.888Z,1029.85
2016-10-29T02:46:26.560Z,1029.87
2016-10-29T02:47:27.230Z,1029.85
2016-10-29T02:48:27.897Z,1029.82
2016-10-29T02:49:28.557Z,1029.76
2016-10-29T02:50:29.216Z,1029.78
2016-10-29T02:51:29.892Z,1029.76
2016-10-29T02:52:30.550Z,1029.76
2016-10-29T02:53:31.239Z,1029.72
2016-10-29T02:54:31.908Z,1029.73
2016-10-29T02:55:32.570Z,1029.74
2016-10-29T02:56:33.243Z,1029.77
2016-10-29T02:57:33.913Z,1029.8
2016-10-29T02:58:34.586Z,1029.81
2016-10-29T02:59:35.253Z,1029.86
2016-10-29T03:00:35.927Z,1029.82
2016-10-29T03:01:36.602Z,1029.77
2016-10-29T03:02:37.276Z,1029.79
2016-10-29T03:03:37.936Z,1029.73
2016-10-29T03:04:38.632Z,1029.73
2016-10-29T03:05:39.291Z,1029.7
2016-10-29T03:06:39.976Z,1029.68
2016-10-29T03:07:40.647Z,1029.69
2016-10-29T03:08:41.315Z,1029.68
2016-10-29T03:09:41.993Z,1029.76
2016-10-29T03:10:42.668Z,1029.7
2016-10-29T03:11:43.328Z,1029.77
2016-10-29T03:12:44.007Z,1029.78
2016-10-29T03:13:44.680Z,1029.79
2016-10-29T03:14:45.350Z,1029.8
2016-10-29T03:15:46.020Z,1029.81
2016-10-29T03:16:46.698Z,1029.83
2016-10-29T03:17:47.373Z,1029.83
2016-10-29T03:18:48.038Z,1029.88
2016-10-29T03:19:48.709Z,1029.94
2016-10-29T03:20:49.376Z,1029.94
2016-10-29T03:21:50.052Z,1029.93
2016-10-29T03:22:50.720Z,1029.88
2016-10-29T03:23:51.378Z,1029.93
2016-10-29T03:24:52.051Z,1029.93
2016-10-29T03:25:52.724Z,1029.95
2016-10-29T03:26:53.377Z,1029.99
2016-10-29T03:27:54.338Z,1029.96
2016-10-29T03:28:55.064Z,1029.94
2016-10-29T03:29:55.718Z,1029.93
2016-10-29T03:30:56.377Z,1029.97
2016-10-29T03:31:57.032Z,1029.99
2016-10-29T03:32:57.701Z,1030
2016-10-29T03:33:58.365Z,1029.99
2016-10-29T03:34:59.030Z,1029.97
2016-10-29T03:35:59.687Z,1029.93
2016-10-29T03:37:00.348Z,1029.96
2016-10-29T03:38:01.001Z,1029.93
2016-10-29T03:39:01.661Z,1029.88
2016-10-29T03:40:02.323Z,1029.91
2016-10-29T03:41:02.986Z,1029.89
2016-10-29T03:42:03.664Z,1029.91
2016-10-29T03:43:04.335Z,1029.95
2016-10-29T03:44:05.012Z,1029.92
2016-10-29T03:45:05.675Z,1029.95
2016-10-29T03:46:06.350Z,1029.99
2016-10-29T03:47:07.031Z,1030
2016-10-29T03:48:07.687Z,1030.03
2016-10-29T03:49:08.362Z,1030.02
2016-10-29T03:50:09.030Z,1030
2016-10-29T03:51:09.695Z,1029.97
2016-10-29T03:52:10.351Z,1029.97
2016-10-29T03:53:11.013Z,1030.01
2016-10-29T03:54:11.688Z,1029.95
2016-10-29T03:55:12.357Z,1029.97
2016-10-29T03:56:13.016Z,1029.94
2016-10-29T03:57:13.687Z,1029.94
2016-10-29T03:58:14.348Z,1029.88
2016-10-29T03:59:15.011Z,1029.89
2016-10-29T04:00:15.675Z,1029.91
2016-10-29T04:01:16.360Z,1029.89
2016-10-29T04:02:17.021Z,1029.91
2016-10-29T04:03:17.690Z,1029.91
2016-10-29T04:04:18.363Z,1029.86
2016-10-29T04:05:19.050Z,1029.87
2016-10-29T04:06:19.710Z,1029.83
2016-10-29T04:07:20.386Z,1029.88
2016-10-29T04:08:21.047Z,1029.83
2016-10-29T04:09:21.708Z,1029.85
2016-10-29T04:10:22.380Z,1029.91
2016-10-29T04:11:23.045Z,1029.88
2016-10-29T04:12:23.704Z,1029.9
2016-10-29T04:13:24.368Z,1029.86
2016-10-29T04:14:25.049Z,1029.88
2016-10-29T04:15:25.716Z,1029.87
2016-10-29T04:16:26.400Z,1029.93
2016-10-29T04:17:27.057Z,1029.95
2016-10-29T04:18:27.732Z,1029.9
2016-10-29T04:19:28.407Z,1029.87
2016-10-29T04:20:29.078Z,1029.87
2016-10-29T04:21:29.748Z,1029.88
2016-10-29T04:22:30.420Z,1029.85
2016-10-29T04:23:31.095Z,1029.85
2016-10-29T04:24:31.757Z,1029.83
2016-10-29T04:25:32.438Z,1029.86
2016-10-29T04:26:33.109Z,1029.82
2016-10-29T04:27:33.785Z,1029.9
2016-10-29T04:28:34.463Z,1029.87
2016-10-29T04:29:35.129Z,1029.83
2016-10-29T04:30:35.804Z,1029.87
2016-10-29T04:31:36.462Z,1029.85
2016-10-29T04:32:37.147Z,1029.87
2016-10-29T04:33:37.822Z,1029.87
2016-10-29T04:34:38.498Z,1029.91
2016-10-29T04:35:39.162Z,1029.91
2016-10-29T04:36:39.843Z,1029.93
2016-10-29T04:37:40.511Z,1029.96
2016-10-29T04:38:41.176Z,1029.97
2016-10-29T04:39:41.859Z,1029.96
2016-10-29T04:40:42.526Z,1029.99
2016-10-29T04:41:43.206Z,1030.02
2016-10-29T04:42:43.863Z,1030.04
2016-10-29T04:43:44.544Z,1030.04
2016-10-29T04:44:45.244Z,1030.01
2016-10-29T04:45:45.916Z,1029.99
2016-10-29T04:46:46.574Z,1029.98
2016-10-29T04:47:47.233Z,1030.06
2016-10-29T04:48:47.896Z,1030.04
2016-10-29T04:49:48.562Z,1029.98
2016-10-29T04:50:49.242Z,1030.02
2016-10-29T04:51:49.931Z,1030.02
2016-10-29T04:52:50.590Z,1030.03
2016-10-29T04:53:51.258Z,1029.98
2016-10-29T04:54:51.927Z,1029.98
2016-10-29T04:55:52.584Z,1030.02
2016-10-29T04:56:53.255Z,1030.04
2016-10-29T04:57:53.929Z,1030.03
2016-10-29T04:58:54.581Z,1030.08
2016-10-29T04:59:55.244Z,1030.11
2016-10-29T05:00:55.915Z,1030.08
2016-10-29T05:01:56.582Z,1030.1
2016-10-29T05:02:57.249Z,1030.12
2016-10-29T05:03:57.907Z,1030.12
2016-10-29T05:04:58.574Z,1030.09
2016-10-29T05:05:59.246Z,1030.14
2016-10-29T05:06:59.904Z,1030.16
2016-10-29T05:08:00.558Z,1030.19
2016-10-29T05:09:01.225Z,1030.23
2016-10-29T05:10:01.892Z,1030.19
2016-10-29T05:11:02.564Z,1030.23
2016-10-29T05:12:03.225Z,1030.2
2016-10-29T05:13:03.896Z,1030.15
2016-10-29T05:14:04.550Z,1030.25
2016-10-29T05:15:05.220Z,1030.24
2016-10-29T05:16:05.896Z,1030.21
2016-10-29T05:17:06.566Z,1030.24
2016-10-29T05:18:07.233Z,1030.22
2016-10-29T05:19:07.894Z,1030.21
2016-10-29T05:20:08.560Z,1030.27
2016-10-29T05:21:09.228Z,1030.24
2016-10-29T05:22:09.902Z,1030.24
2016-10-29T05:23:10.572Z,1030.26
2016-10-29T05:24:11.242Z,1030.24
2016-10-29T05:25:11.939Z,1030.22
2016-10-29T05:26:12.591Z,1030.23
2016-10-29T05:27:13.274Z,1030.22
2016-10-29T05:28:13.942Z,1030.23
2016-10-29T05:29:14.606Z,1030.29
2016-10-29T05:30:15.332Z,1030.28
2016-10-29T05:31:16.008Z,1030.28
2016-10-29T05:32:16.677Z,1030.26
2016-10-29T05:33:17.357Z,1030.3
2016-10-29T05:34:18.018Z,1030.33
2016-10-29T05:35:18.697Z,1030.31
2016-10-29T05:36:19.366Z,1030.31
2016-10-29T05:37:20.023Z,1030.31
2016-10-29T05:38:20.698Z,1030.34
2016-10-29T05:39:21.357Z,1030.34
2016-10-29T05:40:22.022Z,1030.35
2016-10-29T05:41:22.686Z,1030.37
2016-10-29T05:42:23.375Z,1030.32
2016-10-29T05:43:24.034Z,1030.32
2016-10-29T05:44:24.701Z,1030.35
2016-10-29T05:45:25.371Z,1030.3
2016-10-29T05:46:26.043Z,1030.34
2016-10-29T05:47:26.709Z,1030.38
2016-10-29T05:48:27.371Z,1030.38
2016-10-29T05:49:28.039Z,1030.42
2016-10-29T05:50:28.710Z,1030.42
2016-10-29T05:51:29.382Z,1030.44
2016-10-29T05:52:30.052Z,1030.41
2016-10-29T05:53:30.717Z,1030.43
2016-10-29T05:54:31.374Z,1030.51
2016-10-29T05:55:32.039Z,1030.53
2016-10-29T05:56:32.712Z,1030.5
2016-10-29T05:57:33.379Z,1030.51
2016-10-29T05:58:34.046Z,1030.55
2016-10-29T05:59:34.716Z,1030.54
2016-10-29T06:00:35.377Z,1030.55
2016-10-29T06:01:36.042Z,1030.55
2016-10-29T06:02:36.722Z,1030.59
2016-10-29T06:03:37.389Z,1030.6
2016-10-29T06:04:38.051Z,1030.5
2016-10-29T06:05:38.701Z,1030.55
2016-10-29T06:06:39.370Z,1030.51
2016-10-29T06:07:40.036Z,1030.56
2016-10-29T06:08:40.701Z,1030.56
2016-10-29T06:09:41.383Z,1030.53
2016-10-29T06:10:42.045Z,1030.58
2016-10-29T06:11:42.711Z,1030.6
2016-10-29T06:12:43.379Z,1030.64
2016-10-29T06:13:44.046Z,1030.64
2016-10-29T06:14:44.747Z,1030.69
2016-10-29T06:15:45.418Z,1030.66
2016-10-29T06:16:46.080Z,1030.66
2016-10-29T06:17:46.758Z,1030.67
2016-10-29T06:18:47.428Z,1030.64
2016-10-29T06:19:48.100Z,1030.61
2016-10-29T06:20:48.773Z,1030.63
2016-10-29T06:21:49.446Z,1030.66
2016-10-29T06:22:50.117Z,1030.63
2016-10-29T06:23:50.793Z,1030.55
2016-10-29T06:24:51.459Z,1030.58
2016-10-29T06:25:52.132Z,1030.58
2016-10-29T06:26:52.804Z,1030.59
2016-10-29T06:27:53.477Z,1030.6
2016-10-29T06:28:54.154Z,1030.54
2016-10-29T06:29:54.824Z,1030.59
2016-10-29T06:30:55.494Z,1030.58
2016-10-29T06:31:56.167Z,1030.56
2016-10-29T06:32:56.841Z,1030.55
2016-10-29T06:33:57.515Z,1030.58
2016-10-29T06:34:58.188Z,1030.54
2016-10-29T06:35:58.854Z,1030.56
2016-10-29T06:36:59.578Z,1030.58
2016-10-29T06:38:00.244Z,1030.61
2016-10-29T06:39:00.921Z,1030.59
2016-10-29T06:40:01.591Z,1030.62
2016-10-29T06:41:02.266Z,1030.66
2016-10-29T06:42:02.953Z,1030.67
2016-10-29T06:43:03.621Z,1030.64
2016-10-29T06:44:04.289Z,1030.62
2016-10-29T06:45:04.975Z,1030.61
2016-10-29T06:46:05.642Z,1030.58
2016-10-29T06:47:06.306Z,1030.55
2016-10-29T06:48:06.978Z,1030.58
2016-10-29T06:49:07.658Z,1030.56
2016-10-29T06:50:08.323Z,1030.58
2016-10-29T06:51:08.988Z,1030.59
2016-10-29T06:52:09.750Z,1030.55
2016-10-29T06:53:10.441Z,1030.59
2016-10-29T06:54:11.116Z,1030.56
2016-10-29T06:55:11.774Z,1030.58
2016-10-29T06:56:12.450Z,1030.56
2016-10-29T06:57:13.113Z,1030.55
2016-10-29T06:58:13.766Z,1030.58
2016-10-29T06:59:14.423Z,1030.6
2016-10-29T07:00:15.090Z,1030.6
2016-10-29T07:01:15.762Z,1030.56
2016-10-29T07:02:16.447Z,1030.51
2016-10-29T07:03:17.117Z,1030.55
2016-10-29T07:04:17.813Z,1030.5
2016-10-29T07:05:18.482Z,1030.54
2016-10-29T07:06:19.145Z,1030.5
2016-10-29T07:07:19.821Z,1030.52
2016-10-29T07:08:20.480Z,1030.51
2016-10-29T07:09:21.154Z,1030.52
2016-10-29T07:10:21.827Z,1030.48
2016-10-29T07:11:22.530Z,1030.49
2016-10-29T07:12:23.208Z,1030.45
2016-10-29T07:13:23.885Z,1030.56
2016-10-29T07:14:24.563Z,1030.57
2016-10-29T07:15:25.242Z,1030.55
2016-10-29T07:16:25.913Z,1030.54
2016-10-29T07:17:26.630Z,1030.51
2016-10-29T07:18:27.299Z,1030.58
2016-10-29T07:19:28.000Z,1030.6
2016-10-29T07:20:28.673Z,1030.65
2016-10-29T07:21:29.343Z,1030.69
2016-10-29T07:22:30.028Z,1030.69
2016-10-29T07:23:30.678Z,1030.68
2016-10-29T07:24:31.339Z,1030.68
2016-10-29T07:25:32.003Z,1030.67
2016-10-29T07:26:32.666Z,1030.73
2016-10-29T07:27:33.351Z,1030.68
2016-10-29T07:28:34.017Z,1030.67
2016-10-29T07:29:34.691Z,1030.68
2016-10-29T07:30:35.366Z,1030.71
2016-10-29T07:31:36.039Z,1030.71
2016-10-29T07:32:36.783Z,1030.74
2016-10-29T07:33:37.453Z,1030.79
2016-10-29T07:34:38.116Z,1030.77
2016-10-29T07:35:38.793Z,1030.74
2016-10-29T07:36:39.480Z,1030.72
2016-10-29T07:37:40.166Z,1030.76
2016-10-29T07:38:40.831Z,1030.8
2016-10-29T07:39:41.498Z,1030.81
2016-10-29T07:40:42.161Z,1030.87
2016-10-29T07:41:42.835Z,1030.91
2016-10-29T07:42:43.509Z,1030.87
2016-10-29T07:43:44.167Z,1030.85
2016-10-29T07:44:44.855Z,1030.83
2016-10-29T07:45:45.534Z,1030.88
2016-10-29T07:46:46.244Z,1030.88
2016-10-29T07:47:46.901Z,1030.9
2016-10-29T07:48:47.567Z,1030.92
2016-10-29T07:49:48.237Z,1030.92
2016-10-29T07:50:48.920Z,1030.91
2016-10-29T07:51:49.585Z,1030.91
2016-10-29T07:52:50.264Z,1030.89
2016-10-29T07:53:50.936Z,1030.94
2016-10-29T07:54:51.602Z,1031
2016-10-29T07:55:52.265Z,1031
2016-10-29T07:56:52.937Z,1030.97
2016-10-29T07:57:53.637Z,1030.93
2016-10-29T07:58:54.319Z,1030.99
2016-10-29T07:59:54.992Z,1031.01
2016-10-29T08:00:55.657Z,1031
2016-10-29T08:01:56.327Z,1030.95
2016-10-29T08:02:57.001Z,1030.89
2016-10-29T08:03:57.666Z,1030.83
2016-10-29T08:04:58.329Z,1030.86
2016-10-29T08:05:58.999Z,1030.87
2016-10-29T08:06:59.672Z,1030.9
2016-10-29T08:08:00.370Z,1030.94
2016-10-29T08:09:01.045Z,1030.96
2016-10-29T08:10:01.735Z,1030.91
2016-10-29T08:11:02.615Z,1030.87
2016-10-29T08:12:03.373Z,1030.9
2016-10-29T08:13:04.198Z,1030.89
2016-10-29T08:14:04.949Z,1031.03
2016-10-29T08:15:06.476Z,1031
2016-10-29T08:16:07.158Z,1030.99
2016-10-29T08:17:07.840Z,1031.03
2016-10-29T08:18:08.507Z,1030.99
2016-10-29T08:19:09.166Z,1031.11
2016-10-29T08:20:09.852Z,1031.09
2016-10-29T08:21:10.522Z,1031.07
2016-10-29T08:22:11.223Z,1031.05
2016-10-29T08:23:11.891Z,1031
2016-10-29T08:24:12.609Z,1031.03
2016-10-29T08:25:13.278Z,1031.03
2016-10-29T08:26:13.941Z,1031.03
2016-10-29T08:27:14.605Z,1031.02
2016-10-29T08:28:15.283Z,1031.01
2016-10-29T08:29:15.949Z,1031.02
2016-10-29T08:30:16.637Z,1030.95
2016-10-29T08:31:17.308Z,1030.92
2016-10-29T08:32:17.978Z,1030.88
2016-10-29T08:33:18.663Z,1030.88
2016-10-29T08:34:19.329Z,1030.88
2016-10-29T08:35:20.003Z,1030.89
2016-10-29T08:36:20.669Z,1030.8
2016-10-29T08:37:21.328Z,1030.78
2016-10-29T08:38:22.019Z,1030.81
2016-10-29T08:39:22.683Z,1030.83
2016-10-29T08:40:23.370Z,1030.83
2016-10-29T08:41:24.062Z,1030.77
2016-10-29T08:42:24.737Z,1030.76
2016-10-29T08:43:25.409Z,1030.74
2016-10-29T08:44:26.095Z,1030.77
2016-10-29T08:45:27.483Z,1030.74
2016-10-29T08:46:28.136Z,1030.77
2016-10-29T08:47:28.823Z,1030.77
2016-10-29T08:48:29.493Z,1030.75
2016-10-29T08:49:30.161Z,1030.72
2016-10-29T08:50:30.865Z,1030.66
2016-10-29T08:51:31.512Z,1030.75
2016-10-29T08:52:32.181Z,1030.77
2016-10-29T08:53:32.934Z,1030.81
2016-10-29T08:54:33.648Z,1030.68
2016-10-29T08:55:34.321Z,1030.74
2016-10-29T08:56:34.970Z,1030.75
2016-10-29T08:57:35.658Z,1030.74
2016-10-29T08:58:36.330Z,1030.73
2016-10-29T08:59:37.015Z,1030.74
2016-10-29T09:00:37.717Z,1030.75
2016-10-29T09:01:38.387Z,1030.76
2016-10-29T09:02:39.961Z,1030.69
2016-10-29T09:03:40.656Z,1030.69
2016-10-29T09:04:41.395Z,1030.75
2016-10-29T09:05:42.097Z,1030.77
2016-10-29T09:06:42.817Z,1030.74
2016-10-29T09:07:43.527Z,1030.78
2016-10-29T09:08:44.258Z,1030.81
2016-10-29T09:09:44.939Z,1030.86
2016-10-29T09:10:45.614Z,1030.95
2016-10-29T09:11:46.288Z,1030.91
2016-10-29T09:12:46.966Z,1030.91
2016-10-29T09:13:47.671Z,1030.94
2016-10-29T09:14:48.346Z,1030.94
2016-10-29T09:15:49.017Z,1030.96
2016-10-29T09:16:49.687Z,1030.96
2016-10-29T09:17:50.364Z,1031.03
2016-10-29T09:18:51.031Z,1030.94
2016-10-29T09:19:51.707Z,1030.88
2016-10-29T09:20:52.381Z,1030.9
2016-10-29T09:21:53.050Z,1030.85
2016-10-29T09:22:53.724Z,1030.83
2016-10-29T09:23:54.402Z,1030.85
2016-10-29T09:24:55.073Z,1030.85
2016-10-29T09:25:55.755Z,1030.81
2016-10-29T09:26:56.418Z,1030.77
2016-10-29T09:27:57.080Z,1030.7
2016-10-29T09:28:57.756Z,1030.74
2016-10-29T09:29:58.420Z,1030.67
2016-10-29T09:30:59.110Z,1030.65
2016-10-29T09:31:59.782Z,1030.65
2016-10-29T09:33:00.473Z,1030.7
2016-10-29T09:34:01.138Z,1030.64
2016-10-29T09:35:01.824Z,1030.66
2016-10-29T09:36:02.488Z,1030.65
2016-10-29T09:37:03.152Z,1030.61
2016-10-29T09:38:03.833Z,1030.67
2016-10-29T09:39:04.509Z,1030.65
2016-10-29T09:40:05.211Z,1030.62
2016-10-29T09:41:05.882Z,1030.66
2016-10-29T09:42:06.557Z,1030.68
2016-10-29T09:43:07.227Z,1030.68
2016-10-29T09:44:07.890Z,1030.7
2016-10-29T09:45:08.552Z,1030.66
2016-10-29T09:46:09.360Z,1030.72
2016-10-29T09:47:12.515Z,1030.68
2016-10-29T09:48:14.149Z,1030.68
2016-10-29T09:49:14.847Z,1030.63
2016-10-29T09:50:16.634Z,1030.69
2016-10-29T09:51:16.874Z,1030.65
2016-10-29T09:52:17.593Z,1030.65
2016-10-29T09:53:18.371Z,1030.66
2016-10-29T09:54:19.081Z,1030.7
2016-10-29T09:55:19.757Z,1030.61
2016-10-29T09:56:20.494Z,1030.66
2016-10-29T09:57:22.384Z,1030.65
2016-10-29T09:58:23.703Z,1030.66
2016-10-29T09:59:25.541Z,1030.6
2016-10-29T10:00:26.301Z,1030.6
2016-10-29T10:01:27.046Z,1030.61
2016-10-29T10:02:27.793Z,1030.61
2016-10-29T10:03:28.559Z,1030.6
2016-10-29T10:04:29.265Z,1030.69
2016-10-29T10:05:29.951Z,1030.71
2016-10-29T10:06:31.094Z,1030.67
2016-10-29T10:07:31.825Z,1030.69
2016-10-29T10:08:33.065Z,1030.69
2016-10-29T10:09:34.333Z,1030.71
2016-10-29T10:10:35.205Z,1030.67
2016-10-29T10:11:35.937Z,1030.65
2016-10-29T10:12:36.737Z,1030.61
2016-10-29T10:13:37.514Z,1030.66
2016-10-29T10:14:38.293Z,1030.62
2016-10-29T10:15:39.188Z,1030.62
2016-10-29T10:16:40.003Z,1030.56
2016-10-29T10:17:40.954Z,1030.6
2016-10-29T10:18:41.698Z,1030.61
2016-10-29T10:19:42.550Z,1030.58
2016-10-29T10:20:43.612Z,1030.59
2016-10-29T10:21:44.295Z,1030.56
2016-10-29T10:22:44.965Z,1030.61
2016-10-29T10:23:45.635Z,1030.56
2016-10-29T10:24:46.311Z,1030.66
2016-10-29T10:25:46.980Z,1030.7
2016-10-29T10:26:47.655Z,1030.75
2016-10-29T10:27:48.322Z,1030.71
2016-10-29T10:28:48.990Z,1030.74
2016-10-29T10:29:51.616Z,1030.73
2016-10-29T10:30:52.664Z,1030.76
2016-10-29T10:31:53.872Z,1030.81
2016-10-29T10:32:54.766Z,1030.77
2016-10-29T10:33:55.442Z,1030.79
2016-10-29T10:34:56.124Z,1030.78
2016-10-29T10:35:56.813Z,1030.84
2016-10-29T10:36:57.486Z,1030.78
2016-10-29T10:37:58.177Z,1030.85
2016-10-29T10:38:59.226Z,1030.82
2016-10-29T10:40:04.942Z,1030.92
2016-10-29T10:41:04.830Z,1030.93
2016-10-29T10:42:06.132Z,1030.94
2016-10-29T10:43:10.222Z,1030.92
2016-10-29T10:44:11.024Z,1030.93
2016-10-29T10:45:12.066Z,1030.91
2016-10-29T10:46:12.762Z,1030.94
2016-10-29T10:47:13.460Z,1030.93
2016-10-29T10:48:14.125Z,1030.9
2016-10-29T10:49:14.795Z,1030.87
2016-10-29T10:50:15.496Z,1030.81
2016-10-29T10:51:16.188Z,1030.85
2016-10-29T10:52:17.333Z,1030.78
2016-10-29T10:53:18.247Z,1030.75
2016-10-29T10:54:18.916Z,1030.72
2016-10-29T10:55:19.583Z,1030.73
2016-10-29T10:56:20.253Z,1030.7
2016-10-29T10:57:20.940Z,1030.73
2016-10-29T10:58:21.629Z,1030.7
2016-10-29T10:59:22.333Z,1030.78
2016-10-29T11:00:23.040Z,1030.77
2016-10-29T11:01:23.712Z,1030.75
2016-10-29T11:02:24.385Z,1030.71
2016-10-29T11:03:25.080Z,1030.68
2016-10-29T11:04:25.749Z,1030.69
2016-10-29T11:05:26.428Z,1030.72
2016-10-29T11:06:27.103Z,1030.71
2016-10-29T11:07:27.768Z,1030.72
2016-10-29T11:08:28.447Z,1030.72
2016-10-29T11:09:29.126Z,1030.76
2016-10-29T11:10:29.788Z,1030.85
2016-10-29T11:11:30.457Z,1030.87
2016-10-29T11:12:31.134Z,1030.79
2016-10-29T11:13:31.798Z,1030.83
2016-10-29T11:14:32.472Z,1030.87
2016-10-29T11:15:33.131Z,1030.8
2016-10-29T11:16:33.795Z,1030.73
2016-10-29T11:17:34.473Z,1030.7
2016-10-29T11:18:35.138Z,1030.7
2016-10-29T11:19:35.806Z,1030.67
2016-10-29T11:20:36.482Z,1030.7
2016-10-29T11:21:37.169Z,1030.71
2016-10-29T11:22:37.863Z,1030.81
2016-10-29T11:23:38.583Z,1030.71
2016-10-29T11:24:39.261Z,1030.77
2016-10-29T11:25:39.940Z,1030.78
2016-10-29T11:26:40.623Z,1030.72
2016-10-29T11:27:41.299Z,1030.7
2016-10-29T11:28:41.966Z,1030.72
2016-10-29T11:29:42.645Z,1030.62
2016-10-29T11:30:43.321Z,1030.6
2016-10-29T11:31:43.987Z,1030.62
2016-10-29T11:32:44.657Z,1030.62
2016-10-29T11:33:45.332Z,1030.52
2016-10-29T11:34:46.059Z,1030.51
2016-10-29T11:35:46.738Z,1030.48
2016-10-29T11:36:47.402Z,1030.47
2016-10-29T11:37:48.084Z,1030.53
2016-10-29T11:38:48.753Z,1030.49
2016-10-29T11:39:49.427Z,1030.55
2016-10-29T11:40:50.102Z,1030.56
2016-10-29T11:41:50.774Z,1030.54
2016-10-29T11:42:51.443Z,1030.54
2016-10-29T11:43:52.112Z,1030.55
2016-10-29T11:44:52.794Z,1030.5
2016-10-29T11:45:53.476Z,1030.5
2016-10-29T11:46:54.161Z,1030.5
2016-10-29T11:47:54.825Z,1030.52
2016-10-29T11:48:55.525Z,1030.54
2016-10-29T11:49:56.212Z,1030.48
2016-10-29T11:50:56.885Z,1030.45
2016-10-29T11:51:57.563Z,1030.5
2016-10-29T11:52:58.244Z,1030.57
2016-10-29T11:53:58.944Z,1030.57
2016-10-29T11:54:59.609Z,1030.56
2016-10-29T11:56:00.298Z,1030.52
2016-10-29T11:57:00.970Z,1030.43
2016-10-29T11:58:01.642Z,1030.46
2016-10-29T11:59:02.316Z,1030.48
2016-10-29T12:00:02.982Z,1030.55
2016-10-29T12:01:03.651Z,1030.59
2016-10-29T12:02:04.326Z,1030.63
2016-10-29T12:03:05.009Z,1030.59
2016-10-29T12:04:05.682Z,1030.62
2016-10-29T12:05:06.353Z,1030.59
2016-10-29T12:06:07.012Z,1030.64
2016-10-29T12:07:07.691Z,1030.59
2016-10-29T12:08:08.363Z,1030.55
2016-10-29T12:09:09.043Z,1030.52
2016-10-29T12:10:09.713Z,1030.51
2016-10-29T12:11:10.390Z,1030.54
2016-10-29T12:12:11.063Z,1030.56
2016-10-29T12:13:11.735Z,1030.43
2016-10-29T12:14:12.404Z,1030.48
2016-10-29T12:15:13.067Z,1030.49
2016-10-29T12:16:13.744Z,1030.55
2016-10-29T12:17:14.417Z,1030.5